Time;durP1;ratioP1;P1;durP2;ratioP2;P2;SDS_P1;SDS_P2;PMS_P1;PMS_P2;Temp;Humidity;BMP_temperature;BMP_pressure;BME280_temperature;BME280_humidity;BME280_pressure;Samples;Min_cycle;Max_cycle;Signal;HPM_P1;HPM_P2
2020/12/17 00:02:16;;;;;;;;;;;;;;;3.77;100.00;101448.09;5115026;28;20373;-76
2020/12/17 00:04:43;;;;;;;;;;;;;;;3.77;100.00;101439.16;5115045;28;20293;-76
2020/12/17 00:07:09;;;;;;;;;;;;;;;3.78;100.00;101435.53;5113003;28;19969;-75
2020/12/17 00:09:34;;;;;;;;;;;;;;;3.77;100.00;101434.66;5114802;28;19928;-76
2020/12/17 00:12:00;;;;;;;;;;;;;;;3.76;100.00;101427.53;5115118;28;19923;-76
2020/12/17 00:14:26;;;;;;;;;;;;;;;3.75;100.00;101436.53;5114839;28;19924;-75
2020/12/17 00:16:52;;;;;;;;;;;;;;;3.75;100.00;101433.84;5114726;28;19924;-76
2020/12/17 00:19:17;;;;;;;;;;;;;;;3.73;100.00;101425.00;5114927;28;19931;-76
2020/12/17 00:21:44;;;;;;;;;;;;;;;3.68;100.00;101427.00;5114918;28;19924;-76
2020/12/17 00:24:10;;;;;;;;;;;;;;;3.68;100.00;101427.00;5113363;28;20027;-76
2020/12/17 00:26:35;;;;;;;;;;;;;;;3.67;100.00;101415.41;5114670;28;19928;-76
2020/12/17 00:29:01;;;;;;;;;;;;;;;3.71;100.00;101426.84;5114886;28;20392;-76
2020/12/17 00:31:27;;;;;;;;;;;;;;;3.71;100.00;101416.13;5114641;28;19923;-76
2020/12/17 00:33:53;;;;;;;;;;;;;;;3.71;100.00;101424.16;5114565;28;20377;-76
2020/12/17 00:36:19;;;;;;;;;;;;;;;3.72;100.00;101423.25;5114063;28;19932;-76
2020/12/17 00:38:46;;;;;;;;;;;;;;;3.72;100.00;101414.31;5114299;28;20011;-76
2020/12/17 00:41:12;;;;;;;;;;;;;;;3.73;100.00;101416.94;5113995;28;20034;-76
2020/12/17 00:43:38;;;;;;;;;;;;;;;3.75;100.00;101409.69;5114336;28;19996;-77
2020/12/17 00:46:04;;;;;;;;;;;;;;;3.76;100.00;101419.50;5114141;28;20552;-77
2020/12/17 00:48:30;;;;;;;;;;;;;;;3.79;100.00;101411.28;5114119;28;19927;-76
2020/12/17 00:50:55;;;;;;;;;;;;;;;3.81;100.00;101417.50;5114267;28;19969;-76
2020/12/17 00:53:21;;;;;;;;;;;;;;;3.81;100.00;101412.13;5113955;28;19924;-76
2020/12/17 00:55:48;;;;;;;;;;;;;;;3.84;100.00;101409.28;5113980;28;19931;-76
2020/12/17 00:58:13;;;;;;;;;;;;;;;3.83;100.00;101404.84;5113560;28;20448;-76
2020/12/17 01:00:39;;;;;;;;;;;;;;;3.85;100.00;101400.31;5113936;28;19931;-76
2020/12/17 01:03:05;;;;;;;;;;;;;;;3.86;100.00;101409.22;5113798;28;19930;-75
2020/12/17 01:05:31;;;;;;;;;;;;;;;3.83;100.00;101401.31;5113747;28;19923;-76
2020/12/17 01:07:57;;;;;;;;;;;;;;;3.83;100.00;101396.78;5113476;28;20029;-76
2020/12/17 01:10:22;;;;;;;;;;;;;;;3.84;100.00;101395.88;5113784;28;19924;-76
2020/12/17 01:12:49;;;;;;;;;;;;;;;3.84;100.00;101397.69;5113454;28;19924;-76
2020/12/17 01:15:15;;;;;;;;;;;;;;;3.84;100.00;101392.31;5113567;28;20397;-76
2020/12/17 01:17:41;;;;;;;;;;;;;;;3.84;100.00;101393.19;5112864;28;20012;-76
2020/12/17 01:20:07;;;;;;;;;;;;;;;3.85;100.00;101396.75;5113632;28;19924;-77
2020/12/17 01:22:33;;;;;;;;;;;;;;;3.88;100.00;101395.75;5113537;28;19963;-77
2020/12/17 01:24:58;;;;;;;;;;;;;;;3.88;100.00;101403.81;5113545;28;19923;-76
2020/12/17 01:27:28;;;;;;;;;;;;;;;3.87;100.00;101389.50;5113167;28;20401;-76
2020/12/17 01:29:54;;;;;;;;;;;;;;;3.89;100.00;101395.69;5113504;28;19973;-76
2020/12/17 01:32:20;;;;;;;;;;;;;;;3.88;100.00;101385.00;5113428;28;19965;-76
2020/12/17 01:34:46;;;;;;;;;;;;;;;3.89;100.00;101382.25;5113006;28;19924;-76
2020/12/17 01:37:12;;;;;;;;;;;;;;;3.89;100.00;101389.41;5112940;28;19976;-76
2020/12/17 01:39:38;;;;;;;;;;;;;;;3.92;100.00;101383.94;5113277;28;19931;-76
2020/12/17 01:42:03;;;;;;;;;;;;;;;3.90;100.00;101391.16;5113351;28;19930;-77
2020/12/17 01:44:29;;;;;;;;;;;;;;;3.90;100.00;101383.13;5113151;28;19924;-76
2020/12/17 01:46:56;;;;;;;;;;;;;;;3.91;100.00;101371.44;5112923;28;20415;-77
2020/12/17 01:49:22;;;;;;;;;;;;;;;3.88;100.00;101372.44;5113065;28;20027;-76
2020/12/17 01:51:48;;;;;;;;;;;;;;;3.87;100.00;101368.00;5112959;28;19976;-76
2020/12/17 01:54:14;;;;;;;;;;;;;;;3.88;100.00;101374.28;5112532;28;19928;-76
2020/12/17 01:56:41;;;;;;;;;;;;;;;3.85;100.00;101373.44;5112460;28;19924;-76
2020/12/17 01:59:07;;;;;;;;;;;;;;;3.83;100.00;101369.94;5112913;28;19957;-76
2020/12/17 02:01:33;;;;;;;;;;;;;;;3.82;100.00;101378.06;5112694;28;19969;-76
2020/12/17 02:04:01;;;;;;;;;;;;;;;3.82;100.00;101370.00;5112809;28;19924;-76
2020/12/17 02:06:26;;;;;;;;;;;;;;;3.81;100.00;101371.81;5111197;28;19959;-77
2020/12/17 02:08:52;;;;;;;;;;;;;;;3.79;100.00;101357.56;5112597;28;20389;-76
2020/12/17 02:11:19;;;;;;;;;;;;;;;3.80;100.00;101366.53;5112366;28;20421;-76
2020/12/17 02:13:46;;;;;;;;;;;;;;;3.80;100.00;101355.78;5112436;28;20377;-77
2020/12/17 02:16:12;;;;;;;;;;;;;;;3.78;100.00;101346.91;5112166;28;19947;-76
2020/12/17 02:18:38;;;;;;;;;;;;;;;3.76;100.00;101349.66;5112433;28;19969;-76
2020/12/17 02:21:05;;;;;;;;;;;;;;;3.74;100.00;101346.19;5112361;28;19924;-76
2020/12/17 02:23:30;;;;;;;;;;;;;;;3.72;100.00;101340.00;5112248;28;20018;-76
2020/12/17 02:25:57;;;;;;;;;;;;;;;3.69;100.00;101342.81;5112503;28;20069;-77
2020/12/17 02:28:23;;;;;;;;;;;;;;;3.65;100.00;101343.91;5112095;28;20022;-76
2020/12/17 02:30:49;;;;;;;;;;;;;;;3.58;100.00;101332.53;5111875;28;20396;-75
2020/12/17 02:33:15;;;;;;;;;;;;;;;3.51;100.00;101321.19;5112479;28;19967;-76
2020/12/17 02:35:41;;;;;;;;;;;;;;;3.45;100.00;101332.16;5113366;28;19924;-75
2020/12/17 02:38:07;;;;;;;;;;;;;;;3.38;100.00;101328.00;5112811;28;19930;-76
2020/12/17 02:40:34;;;;;;;;;;;;;;;3.30;100.00;101317.59;5112785;28;19924;-76
2020/12/17 02:43:00;;;;;;;;;;;;;;;3.24;100.00;101314.28;5113077;28;19965;-75
2020/12/17 02:45:27;;;;;;;;;;;;;;;3.18;100.00;101312.72;5112597;28;20010;-75
2020/12/17 02:47:52;;;;;;;;;;;;;;;3.15;100.00;101307.47;5111834;28;20349;-75
2020/12/17 02:50:19;;;;;;;;;;;;;;;3.12;100.00;101313.84;5112210;28;19930;-75
2020/12/17 02:52:45;;;;;;;;;;;;;;;3.10;100.00;101315.72;5112196;28;20659;-76
2020/12/17 02:55:12;;;;;;;;;;;;;;;3.08;100.00;101317.56;5112214;28;20022;-76
2020/12/17 02:57:37;;;;;;;;;;;;;;;3.06;100.00;101322.16;5111973;28;19936;-76
2020/12/17 03:00:05;;;;;;;;;;;;;;;3.09;100.00;101319.34;5112161;28;20393;-76
2020/12/17 03:02:31;;;;;;;;;;;;;;;3.06;100.00;101330.19;5112078;28;20022;-76
2020/12/17 03:04:56;;;;;;;;;;;;;;;3.06;100.00;101331.97;5111593;28;19969;-76
2020/12/17 03:07:22;;;;;;;;;;;;;;;2.97;100.00;101355.56;5111215;28;20297;-76
2020/12/17 03:09:48;;;;;;;;;;;;;;;2.91;100.00;101355.78;5111843;28;19924;-76
2020/12/17 03:12:14;;;;;;;;;;;;;;;2.88;100.00;101361.28;5111980;28;19935;-76
2020/12/17 03:14:39;;;;;;;;;;;;;;;2.84;100.00;101365.03;5111936;28;20472;-76
2020/12/17 03:17:06;;;;;;;;;;;;;;;2.83;100.00;101360.59;5111576;28;19935;-76
2020/12/17 03:19:32;;;;;;;;;;;;;;;2.81;100.00;101360.66;5111702;28;20539;-76
2020/12/17 03:21:58;;;;;;;;;;;;;;;2.82;100.00;101361.53;5111816;28;19923;-76
2020/12/17 03:24:23;;;;;;;;;;;;;;;2.81;100.00;101359.78;5111700;28;19923;-76
2020/12/17 03:26:49;;;;;;;;;;;;;;;2.86;100.00;101363.16;5111393;28;19931;-76
2020/12/17 03:29:15;;;;;;;;;;;;;;;2.83;100.00;101361.47;5111697;28;19928;-76
2020/12/17 03:31:41;;;;;;;;;;;;;;;2.81;100.00;101362.47;5111673;28;19931;-76
2020/12/17 03:34:07;;;;;;;;;;;;;;;2.78;100.00;101367.94;5111673;28;19977;-75
2020/12/17 03:36:33;;;;;;;;;;;;;;;2.73;100.00;101362.75;5111372;28;19965;-76
2020/12/17 03:38:59;;;;;;;;;;;;;;;2.72;100.00;101355.63;5111558;28;20385;-76
2020/12/17 03:41:24;;;;;;;;;;;;;;;2.72;100.00;101363.69;5113716;28;19927;-76
2020/12/17 03:43:50;;;;;;;;;;;;;;;2.70;100.00;101353.94;5115273;28;19923;-76
2020/12/17 03:46:16;;;;;;;;;;;;;;;2.67;100.00;101360.28;5114788;28;20396;-75
2020/12/17 03:48:42;;;;;;;;;;;;;;;2.63;100.00;101369.41;5115263;28;19930;-76
2020/12/17 03:51:08;;;;;;;;;;;;;;;2.60;100.00;101361.47;5115214;28;19933;-76
2020/12/17 03:53:34;;;;;;;;;;;;;;;2.56;100.00;101367.88;5115107;28;20444;-76
2020/12/17 03:56:00;;;;;;;;;;;;;;;2.50;100.00;101369.00;5114977;28;19931;-76
2020/12/17 03:58:26;;;;;;;;;;;;;;;2.43;100.00;101367.47;5115118;28;19924;-76
2020/12/17 04:00:51;;;;;;;;;;;;;;;2.41;100.00;101375.56;5114953;28;19953;-76
2020/12/17 04:03:17;;;;;;;;;;;;;;;2.41;100.00;101369.34;5114420;28;19924;-76
2020/12/17 04:05:43;;;;;;;;;;;;;;;2.43;100.00;101362.09;5114935;28;19924;-76
2020/12/17 04:08:09;;;;;;;;;;;;;;;2.43;100.00;101362.09;5114524;28;19924;-76
2020/12/17 04:10:35;;;;;;;;;;;;;;;2.40;100.00;101356.88;5114834;28;19984;-76
2020/12/17 04:13:01;;;;;;;;;;;;;;;2.42;100.00;101350.53;5114719;28;19924;-76
2020/12/17 04:15:27;;;;;;;;;;;;;;;2.48;100.00;101354.75;5114750;28;19924;-76
2020/12/17 04:17:52;;;;;;;;;;;;;;;2.47;100.00;101345.88;5114021;28;19943;-76
2020/12/17 04:20:18;;;;;;;;;;;;;;;2.43;100.00;101340.66;5114579;28;19924;-76
2020/12/17 04:22:44;;;;;;;;;;;;;;;2.42;100.00;101339.78;5114750;28;19927;-76
2020/12/17 04:25:10;;;;;;;;;;;;;;;2.39;100.00;101339.88;5114553;28;19924;-76
2020/12/17 04:27:36;;;;;;;;;;;;;;;2.37;100.00;101339.09;5114117;28;20014;-76
2020/12/17 04:30:02;;;;;;;;;;;;;;;2.36;100.00;101337.34;5114556;28;19931;-76
2020/12/17 04:32:28;;;;;;;;;;;;;;;2.33;100.00;101337.47;5114376;28;19930;-76
2020/12/17 04:34:54;;;;;;;;;;;;;;;2.28;100.00;101340.28;5114449;28;19963;-75
2020/12/17 04:37:20;;;;;;;;;;;;;;;2.25;100.00;101352.94;5113690;28;19928;-76
2020/12/17 04:39:45;;;;;;;;;;;;;;;2.28;100.00;101347.47;5114237;28;20277;-75
2020/12/17 04:42:13;;;;;;;;;;;;;;;2.29;100.00;101343.88;5114237;28;19923;-76
2020/12/17 04:44:39;;;;;;;;;;;;;;;2.27;100.00;101354.63;5114212;28;20445;-76
2020/12/17 04:47:05;;;;;;;;;;;;;;;2.23;100.00;101352.13;5113911;28;19939;-76
2020/12/17 04:49:33;;;;;;;;;;;;;;;2.24;100.00;101345.84;5114038;28;20321;-76
2020/12/17 04:51:59;;;;;;;;;;;;;;;2.25;100.00;101342.22;5113523;28;19931;-76
2020/12/17 04:54:25;;;;;;;;;;;;;;;2.25;100.00;101336.88;5113665;28;19967;-76
2020/12/17 04:56:58;;;;;;;;;;;;;;;2.24;100.00;101335.97;5113600;28;20381;-76
2020/12/17 04:59:32;;;;;;;;;;;;;;;2.23;100.00;101334.25;5113905;28;20349;-76
2020/12/17 05:02:02;;;;;;;;;;;;;;;2.18;100.00;101329.06;5113818;28;20018;-76
2020/12/17 05:04:28;;;;;;;;;;;;;;;2.20;100.00;101328.97;5113755;28;19973;-75
2020/12/17 05:06:54;;;;;;;;;;;;;;;2.18;100.00;101329.06;5113701;28;20026;-76
2020/12/17 05:09:20;;;;;;;;;;;;;;;2.19;100.00;101324.56;5113532;28;19927;-76
2020/12/17 05:11:46;;;;;;;;;;;;;;;2.18;100.00;101325.50;5113370;28;20292;-75
2020/12/17 05:14:12;;;;;;;;;;;;;;;2.13;100.00;101322.97;5113244;28;19964;-75
2020/12/17 05:16:39;;;;;;;;;;;;;;;2.15;100.00;101320.25;5113147;28;19924;-75
2020/12/17 05:19:04;;;;;;;;;;;;;;;2.17;100.00;101321.94;5113410;28;20025;-75
2020/12/17 05:21:30;;;;;;;;;;;;;;;2.13;100.00;101322.97;5113507;28;19927;-75
2020/12/17 05:23:56;;;;;;;;;;;;;;;2.08;100.00;101316.91;5113262;28;19955;-75
2020/12/17 05:26:23;;;;;;;;;;;;;;;2.08;100.00;101314.22;5113087;28;19923;-75
2020/12/17 05:28:50;;;;;;;;;;;;;;;2.09;100.00;101321.34;5113021;28;20022;-75
2020/12/17 05:31:20;;;;;;;;;;;;;;;2.08;100.00;101319.59;5113227;28;20034;-75
2020/12/17 05:33:46;;;;;;;;;;;;;;;2.06;100.00;101316.09;5113140;28;20420;-75
2020/12/17 05:36:19;;;;;;;;;;;;;;;2.05;100.00;101324.22;5112719;28;20038;-75
2020/12/17 05:38:44;;;;;;;;;;;;;;;2.02;100.00;101314.47;5113577;28;19976;-75
2020/12/17 05:41:10;;;;;;;;;;;;;;;2.01;100.00;101316.25;5114277;28;19962;-75
2020/12/17 05:43:36;;;;;;;;;;;;;;;1.99;100.00;101323.50;5108375;28;20373;-75
2020/12/17 05:46:02;;;;;;;;;;;;;;;2.01;100.00;101328.78;5100421;28;19923;-75
2020/12/17 05:48:28;;;;;;;;;;;;;;;2.01;100.00;101323.44;5112698;28;20431;-75
2020/12/17 05:50:55;;;;;;;;;;;;;;;2.03;100.00;101324.22;5110831;28;20065;-74
2020/12/17 05:53:22;;;;;;;;;;;;;;;2.08;100.00;101319.59;5092332;28;20015;-74
2020/12/17 05:55:50;;;;;;;;;;;;;;;2.10;100.00;101324.88;5101009;28;19962;-75
2020/12/17 05:58:16;;;;;;;;;;;;;;;2.09;100.00;101316.00;5100424;28;19928;-75
2020/12/17 06:00:42;;;;;;;;;;;;;;;2.08;100.00;101308.88;5111484;28;19931;-75
2020/12/17 06:03:11;;;;;;;;;;;;;;;2.12;100.00;101312.31;5106981;28;19932;-75
2020/12/17 06:05:41;;;;;;;;;;;;;;;2.14;100.00;101307.81;5091173;28;19924;-75
2020/12/17 06:08:12;;;;;;;;;;;;;;;2.14;100.00;101315.84;5092074;28;19955;-75
2020/12/17 06:10:44;;;;;;;;;;;;;;;2.13;100.00;101301.56;5092292;28;19930;-75
2020/12/17 06:13:12;;;;;;;;;;;;;;;2.13;100.00;101301.56;5095905;28;20500;-75
2020/12/17 06:15:38;;;;;;;;;;;;;;;2.15;100.00;101310.41;5090936;28;20360;-75
2020/12/17 06:18:04;;;;;;;;;;;;;;;2.13;100.00;101312.25;5092524;28;20019;-75
2020/12/17 06:20:31;;;;;;;;;;;;;;;2.15;100.00;101313.09;5106283;28;20599;-75
2020/12/17 06:22:57;;;;;;;;;;;;;;;2.16;100.00;101317.53;5111846;28;19924;-75
2020/12/17 06:25:25;;;;;;;;;;;;;;;2.14;100.00;101305.97;5109295;28;20389;-75
2020/12/17 06:27:51;;;;;;;;;;;;;;;2.14;100.00;101305.13;5094030;28;20031;-75
2020/12/17 06:30:17;;;;;;;;;;;;;;;2.12;100.00;101309.66;5092660;28;19924;-75
2020/12/17 06:32:44;;;;;;;;;;;;;;;2.11;100.00;101307.91;5091991;28;20426;-74
2020/12/17 06:35:17;;;;;;;;;;;;;;;2.09;100.00;101297.25;5091875;28;20027;-75
2020/12/17 06:37:43;;;;;;;;;;;;;;;2.07;100.00;101307.16;5095970;28;20016;-75
2020/12/17 06:40:09;;;;;;;;;;;;;;;2.04;100.00;101307.25;5101657;28;20376;-75
2020/12/17 06:42:36;;;;;;;;;;;;;;;2.01;100.00;101313.59;5111472;28;20018;-75
2020/12/17 06:45:03;;;;;;;;;;;;;;;2.02;100.00;101317.16;5094817;28;20512;-75
2020/12/17 06:47:29;;;;;;;;;;;;;;;2.00;100.00;101310.97;5098201;28;19924;-73
2020/12/17 06:49:55;;;;;;;;;;;;;;;2.00;100.00;101310.97;5100415;28;19947;-75
2020/12/17 06:52:21;;;;;;;;;;;;;;;1.98;100.00;101296.78;5104036;28;19969;-75
2020/12/17 06:54:47;;;;;;;;;;;;;;;1.95;100.00;101299.53;5107258;28;19924;-74
2020/12/17 06:57:13;;;;;;;;;;;;;;;1.90;100.00;101301.50;5111357;28;19930;-75
2020/12/17 06:59:40;;;;;;;;;;;;;;;1.87;100.00;101302.53;5109908;28;19970;-75
2020/12/17 07:02:06;;;;;;;;;;;;;;;1.85;100.00;101290.97;5091559;28;19974;-74
2020/12/17 07:04:40;;;;;;;;;;;;;;;1.80;100.00;101287.59;5091587;28;19924;-75
2020/12/17 07:07:24;;;;;;;;;;;;;;;1.77;100.00;101288.56;5095921;28;19928;-73
2020/12/17 07:09:50;;;;;;;;;;;;;;;1.74;100.00;101295.81;5110119;28;20010;-74
2020/12/17 07:12:35;;;;;;;;;;;;;;;1.72;100.00;101295.88;5111536;28;19928;-75
2020/12/17 07:15:02;;;;;;;;;;;;;;;1.70;100.00;101299.53;5111906;28;20511;-74
2020/12/17 07:17:28;;;;;;;;;;;;;;;1.65;100.00;101292.53;5110641;28;20018;-74
2020/12/17 07:19:54;;;;;;;;;;;;;;;1.66;100.00;101302.31;5095435;28;20014;-74
2020/12/17 07:22:20;;;;;;;;;;;;;;;1.67;100.00;101303.19;5107829;28;19943;-74
2020/12/17 07:24:46;;;;;;;;;;;;;;;1.66;100.00;101302.31;5115595;27;20462;-74
2020/12/17 07:27:13;;;;;;;;;;;;;;;1.65;100.00;101299.72;5100106;28;19924;-74
2020/12/17 07:29:40;;;;;;;;;;;;;;;1.67;100.00;101304.09;5100817;28;19935;-73
2020/12/17 07:32:36;;;;;;;;;;;;;;;1.69;100.00;101306.69;5095570;28;19928;-73
2020/12/17 07:35:16;;;;;;;;;;;;;;;1.74;100.00;101309.19;5047910;28;19925;-74
2020/12/17 07:37:42;;;;;;;;;;;;;;;1.80;100.00;101309.91;5105312;28;19928;-75
2020/12/17 07:40:15;;;;;;;;;;;;;;;1.89;100.00;101310.50;5111608;28;19951;-75
2020/12/17 07:42:41;;;;;;;;;;;;;;;1.99;100.00;101318.13;5100964;28;19967;-75
2020/12/17 07:45:07;;;;;;;;;;;;;;;2.12;100.00;101318.53;5114429;27;20339;-75
2020/12/17 07:47:33;;;;;;;;;;;;;;;2.25;100.00;101329.69;5112660;28;20008;-75
2020/12/17 07:49:59;;;;;;;;;;;;;;;2.33;100.00;101324.06;5107863;28;20305;-74
2020/12/17 07:52:30;;;;;;;;;;;;;;;2.44;100.00;101320.97;5110456;28;20011;-76
2020/12/17 07:54:55;;;;;;;;;;;;;;;2.49;100.00;101322.53;5111227;28;20011;-76
2020/12/17 07:57:21;;;;;;;;;;;;;;;2.56;100.00;101316.97;5114487;28;19924;-75
2020/12/17 07:59:47;;;;;;;;;;;;;;;2.59;100.00;101315.03;5111302;28;19943;-76
2020/12/17 08:02:13;;;;;;;;;;;;;;;2.61;100.00;101325.69;5102990;28;19924;-75
2020/12/17 08:04:44;;;;;;;;;;;;;;;2.55;100.00;101305.34;5113549;28;20300;-75
2020/12/17 08:07:10;;;;;;;;;;;;;;;2.59;100.00;101316.84;5114760;28;20381;-74
2020/12/17 08:09:37;;;;;;;;;;;;;;;2.64;100.00;101318.41;5114673;28;19992;-75
2020/12/17 08:12:03;;;;;;;;;;;;;;;2.62;100.00;101292.56;5114919;28;20358;-75
2020/12/17 08:14:29;;;;;;;;;;;;;;;2.66;100.00;101310.31;5114652;28;19965;-75
2020/12/17 08:17:03;;;;;;;;;;;;;;;2.79;100.00;101300.88;5114728;28;19931;-76
2020/12/17 08:19:29;;;;;;;;;;;;;;;2.83;100.00;101294.44;5114702;28;19958;-76
2020/12/17 08:21:55;;;;;;;;;;;;;;;2.99;100.00;101292.00;5114749;28;19931;-76
2020/12/17 08:24:24;;;;;;;;;;;;;;;3.13;100.00;101283.38;5114544;28;20022;-75
2020/12/17 08:26:52;;;;;;;;;;;;;;;3.36;100.00;101292.28;5112406;28;20460;-75
2020/12/17 08:29:18;;;;;;;;;;;;;;;3.52;100.00;101301.44;5113840;28;19924;-76
2020/12/17 08:31:45;;;;;;;;;;;;;;;3.50;100.00;101297.06;5114218;28;19959;-75
2020/12/17 08:34:11;;;;;;;;;;;;;;;3.49;100.00;101293.53;5114268;28;20022;-75
2020/12/17 08:36:37;;;;;;;;;;;;;;;3.55;100.00;101294.19;5113830;28;19930;-75
2020/12/17 08:39:04;;;;;;;;;;;;;;;3.59;100.00;101302.03;5114261;28;20533;-74
2020/12/17 08:41:31;;;;;;;;;;;;;;;3.38;100.00;101294.91;5115036;28;20312;-75
2020/12/17 08:44:01;;;;;;;;;;;;;;;3.29;100.00;101301.56;5114377;28;19975;-76
2020/12/17 08:46:27;;;;;;;;;;;;;;;3.18;100.00;101297.50;5113622;28;19935;-76
2020/12/17 08:48:54;;;;;;;;;;;;;;;3.11;100.00;101303.16;5114288;28;20014;-77
2020/12/17 08:51:22;;;;;;;;;;;;;;;3.07;100.00;101302.41;5114107;28;20005;-75
2020/12/17 08:53:48;;;;;;;;;;;;;;;2.99;100.00;101308.09;5113975;28;20026;-76
2020/12/17 08:56:14;;;;;;;;;;;;;;;2.94;100.00;101299.38;5113397;28;20005;-76
2020/12/17 08:58:44;;;;;;;;;;;;;;;2.94;100.00;101311.88;5113608;28;19962;-75
2020/12/17 09:01:14;;;;;;;;;;;;;;;2.97;100.00;101319.84;5113381;28;20002;-75
2020/12/17 09:03:42;;;;;;;;;;;;;;;2.92;100.00;101320.00;5113625;28;20000;-75
2020/12/17 09:06:08;;;;;;;;;;;;;;;2.85;100.00;101311.31;5113132;28;19934;-75
2020/12/17 09:08:34;;;;;;;;;;;;;;;2.90;100.00;101307.59;5113423;28;19923;-75
2020/12/17 09:11:00;;;;;;;;;;;;;;;2.94;100.00;101310.09;5105375;28;19924;-75
2020/12/17 09:13:26;;;;;;;;;;;;;;;2.98;100.00;101322.44;5100835;28;19931;-75
2020/12/17 09:16:01;;;;;;;;;;;;;;;2.94;100.00;101307.41;5093078;28;19924;-74
2020/12/17 09:18:28;;;;;;;;;;;;;;;2.94;100.00;101301.16;5092796;28;19940;-75
2020/12/17 09:21:04;;;;;;;;;;;;;;;2.93;100.00;101302.13;5101627;28;19928;-75
2020/12/17 09:23:30;;;;;;;;;;;;;;;2.96;100.00;101312.72;5113236;28;20050;-75
2020/12/17 09:25:56;;;;;;;;;;;;;;;3.03;100.00;101307.97;5113212;28;20293;-75
2020/12/17 09:28:22;;;;;;;;;;;;;;;3.07;100.00;101321.19;5112995;28;19931;-76
2020/12/17 09:30:48;;;;;;;;;;;;;;;3.05;100.00;101312.34;5113229;28;19923;-74
2020/12/17 09:33:17;;;;;;;;;;;;;;;3.10;100.00;101309.47;5113173;28;19931;-75
2020/12/17 09:35:44;;;;;;;;;;;;;;;3.15;100.00;101316.41;5108546;27;19970;-75
2020/12/17 09:38:12;;;;;;;;;;;;;;;3.16;100.00;101310.09;5097029;28;20022;-74
2020/12/17 09:40:40;;;;;;;;;;;;;;;3.18;100.00;101308.22;5104078;28;19927;-73
2020/12/17 09:43:07;;;;;;;;;;;;;;;3.20;100.00;101310.84;5100567;28;20019;-75
2020/12/17 09:45:33;;;;;;;;;;;;;;;3.16;100.00;101299.34;5093773;28;20412;-75
2020/12/17 09:47:59;;;;;;;;;;;;;;;3.18;100.00;101305.53;5109556;28;20321;-75
2020/12/17 09:50:25;;;;;;;;;;;;;;;3.25;100.00;101307.97;5109170;28;19931;-75
2020/12/17 09:52:51;;;;;;;;;;;;;;;3.28;100.00;101291.75;5092590;28;19935;-75
2020/12/17 09:55:17;;;;;;;;;;;;;;;3.39;100.00;101305.56;5094877;28;19974;-75
2020/12/17 09:57:43;;;;;;;;;;;;;;;3.43;100.00;101306.31;5092092;28;19930;-74
2020/12/17 10:00:11;;;;;;;;;;;;;;;3.52;100.00;101298.75;5108457;28;20393;-75
2020/12/17 10:02:39;;;;;;;;;;;;;;;3.61;100.00;101293.94;5105582;28;19935;-75
2020/12/17 10:05:06;;;;;;;;;;;;;;;3.50;100.00;101292.59;5096032;28;19924;-75
2020/12/17 10:07:32;;;;;;;;;;;;;;;3.46;100.00;101284.72;5091872;28;19928;-74
2020/12/17 10:09:58;;;;;;;;;;;;;;;3.54;100.00;101276.34;5100490;28;20388;-75
2020/12/17 10:12:24;;;;;;;;;;;;;;;3.50;100.00;101281.84;5100265;28;19974;-76
2020/12/17 10:14:50;;;;;;;;;;;;;;;3.60;100.00;101278.78;5092335;28;19931;-76
2020/12/17 10:17:16;;;;;;;;;;;;;;;3.57;100.00;101277.09;5092992;28;20097;-75
2020/12/17 10:19:42;;;;;;;;;;;;;;;3.59;100.00;101274.34;5106684;28;19935;-75
2020/12/17 10:22:08;;;;;;;;;;;;;;;3.61;100.00;101272.47;5111064;28;19946;-75
2020/12/17 10:24:34;;;;;;;;;;;;;;;3.68;100.00;101273.94;5100713;28;19981;-76
2020/12/17 10:27:02;;;;;;;;;;;;;;;3.75;100.00;101275.41;5112288;28;20389;-76
2020/12/17 10:29:27;;;;;;;;;;;;;;;3.74;100.00;101268.31;5110037;28;20422;-76
2020/12/17 10:31:55;;;;;;;;;;;;;;;3.76;100.00;101260.19;5111535;28;20014;-76
2020/12/17 10:34:20;;;;;;;;;;;;;;;3.94;100.00;101261.16;5096261;28;20281;-76
2020/12/17 10:36:46;;;;;;;;;;;;;;;3.99;100.00;101256.44;5111650;28;20023;-76
2020/12/17 10:39:12;;;;;;;;;;;;;;;4.18;100.00;101256.47;5092710;28;19924;-76
2020/12/17 10:41:38;;;;;;;;;;;;;;;4.27;100.00;101247.13;5102634;28;19931;-77
2020/12/17 10:44:05;;;;;;;;;;;;;;;4.45;100.00;101250.75;5091835;28;19928;-77
2020/12/17 10:46:31;;;;;;;;;;;;;;;4.75;100.00;101248.44;5101384;28;20046;-77
2020/12/17 10:48:57;;;;;;;;;;;;;;;4.61;100.00;101232.06;5090688;28;19928;-78
2020/12/17 10:51:23;;;;;;;;;;;;;;;4.65;100.00;101222.91;5106128;28;19959;-74
2020/12/17 10:53:49;;;;;;;;;;;;;;;4.51;100.00;101240.59;5095995;28;19924;-74
2020/12/17 10:56:14;;;;;;;;;;;;;;;4.53;100.00;101244.09;5095435;28;19928;-76
2020/12/17 10:58:41;;;;;;;;;;;;;;;4.65;100.00;101236.34;5095847;28;19935;-75
2020/12/17 11:01:08;;;;;;;;;;;;;;;4.82;100.00;101239.13;5113883;28;20022;-76
2020/12/17 11:03:34;;;;;;;;;;;;;;;4.82;100.00;101231.06;5116074;28;20043;-75
2020/12/17 11:06:00;;;;;;;;;;;;;;;4.99;100.00;101234.72;5115099;28;19928;-75
2020/12/17 11:08:26;;;;;;;;;;;;;;;5.00;100.00;101233.78;5110941;28;19924;-76
2020/12/17 11:10:52;;;;;;;;;;;;;;;4.98;100.00;101233.88;5103209;28;20023;-76
2020/12/17 11:13:18;;;;;;;;;;;;;;;5.12;100.00;101218.84;5114325;28;19924;-76
2020/12/17 11:15:44;;;;;;;;;;;;;;;5.25;100.00;101227.16;5114151;28;19931;-76
2020/12/17 11:18:13;;;;;;;;;;;;;;;5.26;100.00;101229.75;5105428;28;20300;-76
2020/12/17 11:20:39;;;;;;;;;;;;;;;5.34;100.00;101218.59;5101638;28;20015;-76
2020/12/17 11:23:05;;;;;;;;;;;;;;;5.23;100.00;101208.38;5107571;28;20297;-76
2020/12/17 11:25:33;;;;;;;;;;;;;;;5.17;100.00;101214.97;5094519;28;19932;-76
2020/12/17 11:27:58;;;;;;;;;;;;;;;5.39;100.00;101219.25;5095023;28;19954;-76
2020/12/17 11:30:24;;;;;;;;;;;;;;;5.27;100.00;101218.03;5097251;28;19923;-75
2020/12/17 11:32:50;;;;;;;;;;;;;;;5.38;100.00;101209.41;5115347;28;19928;-76
2020/12/17 11:35:16;;;;;;;;;;;;;;;5.52;100.00;101204.19;5114725;28;19924;-76
2020/12/17 11:37:42;;;;;;;;;;;;;;;5.51;100.00;101207.81;5095996;28;20472;-76
2020/12/17 11:40:09;;;;;;;;;;;;;;;5.56;100.00;101221.06;5103626;28;19924;-76
2020/12/17 11:42:35;;;;;;;;;;;;;;;5.69;100.00;101221.28;5103217;28;20011;-76
2020/12/17 11:45:01;;;;;;;;;;;;;;;5.64;100.00;101204.50;5115347;28;20377;-76
2020/12/17 11:47:29;;;;;;;;;;;;;;;5.76;100.00;101214.63;5108473;28;19940;-76
2020/12/17 11:49:55;;;;;;;;;;;;;;;5.61;100.00;101201.94;5094889;28;19924;-76
2020/12/17 11:52:22;;;;;;;;;;;;;;;5.72;100.00;101214.84;5111467;28;19923;-76
2020/12/17 11:54:47;;;;;;;;;;;;;;;5.83;100.00;101216.03;5105768;28;20061;-76
2020/12/17 11:57:13;;;;;;;;;;;;;;;5.94;100.00;101217.28;5094347;28;19924;-76
2020/12/17 11:59:39;;;;;;;;;;;;;;;6.13;100.00;101209.97;5106879;28;19998;-76
2020/12/17 12:02:06;;;;;;;;;;;;;;;5.99;100.00;101204.47;5114124;28;20563;-76
2020/12/17 12:04:31;;;;;;;;;;;;;;;6.02;100.00;101201.59;5112597;28;20014;-76
2020/12/17 12:06:57;;;;;;;;;;;;;;;5.83;100.00;101186.38;5094440;28;19935;-76
2020/12/17 12:09:24;;;;;;;;;;;;;;;5.77;100.00;101181.34;5095588;28;20396;-76
2020/12/17 12:11:53;;;;;;;;;;;;;;;6.07;100.00;101186.03;5110301;28;20054;-76
2020/12/17 12:14:19;;;;;;;;;;;;;;;6.04;100.00;101194.31;5113512;28;19946;-76
2020/12/17 12:16:45;;;;;;;;;;;;;;;6.17;100.00;101198.06;5099493;28;20370;-76
2020/12/17 12:19:11;;;;;;;;;;;;;;;6.07;100.00;101191.44;5094263;28;19970;-76
2020/12/17 12:21:36;;;;;;;;;;;;;;;6.06;100.00;101195.06;5106123;28;19992;-76
2020/12/17 12:24:02;;;;;;;;;;;;;;;6.03;100.00;101195.25;5114599;28;19924;-76
2020/12/17 12:26:29;;;;;;;;;;;;;;;5.96;100.00;101196.50;5110226;28;19923;-75
2020/12/17 12:28:55;;;;;;;;;;;;;;;5.95;100.00;101200.16;5114252;28;19938;-76
2020/12/17 12:31:21;;;;;;;;;;;;;;;5.84;100.00;101198.91;5098119;28;19924;-76
2020/12/17 12:33:47;;;;;;;;;;;;;;;5.85;100.00;101197.97;5101525;28;19924;-76